createdAt,value
2018-07-04T00:00:43.704Z,90.20
2018-07-04T00:03:23.420Z,90.00
2018-07-04T00:06:03.093Z,89.60
2018-07-04T00:08:42.969Z,89.50
2018-07-04T00:11:22.756Z,89.80
2018-07-04T00:14:02.736Z,89.30
2018-07-04T00:16:42.455Z,88.80
2018-07-04T00:19:22.095Z,88.80
2018-07-04T00:22:01.781Z,88.60
2018-07-04T00:24:41.532Z,88.50
2018-07-04T00:27:21.375Z,88.80
2018-07-04T00:30:01.169Z,88.70
2018-07-04T00:32:40.795Z,89.30
2018-07-04T00:35:20.601Z,89.40
2018-07-04T00:38:00.424Z,89.30
2018-07-04T00:40:42.751Z,89.20
2018-07-04T00:43:22.642Z,89.40
2018-07-04T00:46:02.287Z,89.60
2018-07-04T00:48:42.073Z,89.90
2018-07-04T00:51:21.998Z,89.90
2018-07-04T00:54:01.616Z,90.10
2018-07-04T00:56:41.334Z,90.10
2018-07-04T00:59:21.122Z,90.30
2018-07-04T01:02:00.974Z,90.30
2018-07-04T01:04:40.619Z,90.40
2018-07-04T01:07:20.573Z,90.40
2018-07-04T01:10:00.353Z,90.60
2018-07-04T01:12:40.250Z,90.60
2018-07-04T01:15:19.980Z,90.60
2018-07-04T01:17:59.732Z,90.20
2018-07-04T01:20:44.857Z,90.30
2018-07-04T01:23:24.536Z,89.90
2018-07-04T01:26:04.240Z,89.40
2018-07-04T01:28:50.003Z,89.10
2018-07-04T01:31:29.891Z,88.30
2018-07-04T01:34:10.193Z,88.00
2018-07-04T01:36:50.043Z,87.50
2018-07-04T01:42:15.076Z,87.60
2018-07-04T01:44:54.947Z,87.50
2018-07-04T01:47:35.111Z,87.00
2018-07-04T01:50:14.986Z,87.00
2018-07-04T01:52:55.182Z,86.70
2018-07-04T01:55:35.056Z,87.00
2018-07-04T01:58:14.692Z,88.10
2018-07-04T02:00:54.491Z,88.10
2018-07-04T02:03:34.778Z,88.30
2018-07-04T02:06:14.566Z,87.70
2018-07-04T02:08:54.451Z,87.60
2018-07-04T02:11:34.380Z,87.70
2018-07-04T02:14:15.164Z,87.80
2018-07-04T02:16:54.980Z,87.60
2018-07-04T02:19:34.638Z,88.00
2018-07-04T02:22:14.242Z,87.80
2018-07-04T02:27:27.624Z,87.70
2018-07-04T02:30:08.085Z,87.60
2018-07-04T02:32:47.828Z,86.80
2018-07-04T02:35:27.729Z,86.60
2018-07-04T02:38:07.451Z,85.50
2018-07-04T02:40:47.140Z,85.90
2018-07-04T02:43:27.064Z,85.90
2018-07-04T02:46:06.862Z,85.70
2018-07-04T02:48:46.760Z,86.90
2018-07-04T02:51:26.631Z,86.80
2018-07-04T02:54:06.395Z,87.90
2018-07-04T02:56:45.982Z,87.10
2018-07-04T02:59:25.576Z,88.10
2018-07-04T03:02:06.244Z,88.10
2018-07-04T03:04:45.877Z,88.10
2018-07-04T03:07:25.630Z,88.60
2018-07-04T03:10:05.458Z,88.20
2018-07-04T03:12:45.378Z,88.30
2018-07-04T03:15:25.143Z,87.60
2018-07-04T03:18:04.863Z,87.80
2018-07-04T03:20:46.266Z,88.30
2018-07-04T03:23:26.815Z,88.50
2018-07-04T03:26:06.408Z,89.00
2018-07-04T03:28:45.927Z,89.00
2018-07-04T03:31:25.519Z,89.00
2018-07-04T03:34:05.124Z,89.40
2018-07-04T03:36:44.886Z,89.20
2018-07-04T03:39:25.353Z,88.90
2018-07-04T03:42:05.176Z,89.70
2018-07-04T03:47:30.063Z,90.00
2018-07-04T03:50:12.078Z,90.20
2018-07-04T03:52:51.626Z,90.30
2018-07-04T03:55:31.449Z,90.30
2018-07-04T03:58:11.310Z,90.30
2018-07-04T04:00:52.189Z,90.70
2018-07-04T04:03:32.050Z,90.80
2018-07-04T04:06:12.098Z,91.00
2018-07-04T04:08:51.935Z,90.70
2018-07-04T04:11:31.638Z,90.60
2018-07-04T04:14:11.232Z,90.30
2018-07-04T04:16:50.881Z,90.30
2018-07-04T04:19:33.669Z,90.20
2018-07-04T04:22:14.730Z,90.00
2018-07-04T04:24:54.627Z,88.60
2018-07-04T04:27:34.590Z,89.10
2018-07-04T04:30:14.354Z,88.80
2018-07-04T04:32:54.451Z,87.60
2018-07-04T04:35:34.361Z,88.00
2018-07-04T04:38:14.244Z,88.10
2018-07-04T04:40:53.942Z,87.40
2018-07-04T04:43:33.687Z,87.20
2018-07-04T04:46:13.464Z,87.10
2018-07-04T04:48:53.375Z,86.80
2018-07-04T04:51:33.180Z,87.40
2018-07-04T04:54:13.193Z,87.00
2018-07-04T04:56:52.790Z,86.90
2018-07-04T04:59:33.611Z,86.50
2018-07-04T05:02:13.363Z,87.00
2018-07-04T05:04:53.259Z,87.00
2018-07-04T05:07:33.097Z,87.20
2018-07-04T05:10:12.787Z,86.70
2018-07-04T05:12:52.679Z,86.80
2018-07-04T05:15:32.652Z,85.00
2018-07-04T05:18:12.362Z,85.60
2018-07-04T05:20:52.204Z,85.70
2018-07-04T05:23:32.060Z,85.90
2018-07-04T05:26:11.988Z,84.50
2018-07-04T05:28:51.810Z,84.30
2018-07-04T05:31:31.754Z,82.50
2018-07-04T05:34:11.752Z,81.80
2018-07-04T05:36:51.670Z,81.80
2018-07-04T05:39:31.402Z,81.10
2018-07-04T05:42:11.183Z,82.00
2018-07-04T05:44:51.089Z,82.40
2018-07-04T05:47:30.799Z,80.30
2018-07-04T05:55:20.852Z,81.40
2018-07-04T05:58:00.515Z,79.90
2018-07-04T06:00:40.398Z,79.60
2018-07-04T06:03:20.389Z,77.20
2018-07-04T06:06:00.116Z,77.20
2018-07-04T06:08:39.831Z,77.80
2018-07-04T06:11:19.659Z,78.30
2018-07-04T06:13:59.569Z,79.20
2018-07-04T06:16:39.451Z,80.10
2018-07-04T06:19:19.162Z,80.30
2018-07-04T06:21:58.891Z,79.50
2018-07-04T06:24:38.713Z,78.70
2018-07-04T06:27:18.339Z,78.30
2018-07-04T06:29:59.384Z,75.20
2018-07-04T06:32:40.463Z,76.50
2018-07-04T06:35:20.226Z,74.50
2018-07-04T06:37:47.698Z,75.90
2018-07-04T06:40:15.055Z,73.80
2018-07-04T06:42:42.523Z,70.30
2018-07-04T06:45:09.969Z,72.50
2018-07-04T06:47:37.442Z,71.20
2018-07-04T06:50:04.959Z,71.70
2018-07-04T06:52:32.456Z,69.20
2018-07-04T06:54:59.923Z,69.80
2018-07-04T06:57:27.375Z,67.20
2018-07-04T06:59:54.811Z,68.90
2018-07-04T07:02:22.322Z,68.80
2018-07-04T07:05:03.180Z,70.10
2018-07-04T07:07:43.035Z,69.10
2018-07-04T07:10:22.900Z,69.30
2018-07-04T07:13:03.115Z,68.30
2018-07-04T07:15:42.985Z,68.90
2018-07-04T07:18:22.855Z,68.40
2018-07-04T07:21:02.737Z,65.70
2018-07-04T07:23:42.475Z,67.20
2018-07-04T07:26:22.227Z,64.30
2018-07-04T07:29:02.134Z,61.00
2018-07-04T07:31:41.831Z,61.00
2018-07-04T07:34:21.819Z,59.20
2018-07-04T07:37:01.342Z,58.40
2018-07-04T07:39:41.353Z,58.90
2018-07-04T07:42:21.179Z,56.90
2018-07-04T07:45:01.047Z,57.80
2018-07-04T07:47:40.769Z,59.60
2018-07-04T07:50:20.459Z,58.20
2018-07-04T07:53:00.293Z,58.40
2018-07-04T07:55:40.021Z,57.20
2018-07-04T07:58:19.981Z,56.60
2018-07-04T08:00:59.874Z,54.60
2018-07-04T08:03:39.847Z,54.20
2018-07-04T08:06:19.690Z,52.50
2018-07-04T08:08:59.470Z,52.80
2018-07-04T08:11:39.266Z,53.90
2018-07-04T08:14:18.914Z,50.30
2018-07-04T08:17:01.935Z,50.50
2018-07-04T08:19:41.758Z,51.30
2018-07-04T08:22:21.492Z,51.10
2018-07-04T08:25:01.455Z,49.70
2018-07-04T08:27:41.460Z,49.70
2018-07-04T08:30:21.151Z,48.70
2018-07-04T08:33:01.404Z,48.20
2018-07-04T08:35:41.433Z,47.00
2018-07-04T08:38:21.311Z,48.70
2018-07-04T08:41:01.249Z,49.00
2018-07-04T08:43:41.100Z,47.70
2018-07-04T08:46:21.191Z,44.70
2018-07-04T08:49:01.054Z,43.20
2018-07-04T08:51:40.939Z,43.00
2018-07-04T08:54:20.837Z,44.70
2018-07-04T08:59:34.519Z,44.40
2018-07-04T09:02:14.397Z,42.70
2018-07-04T09:04:54.351Z,41.30
2018-07-04T09:07:34.408Z,40.90
2018-07-04T09:10:14.187Z,39.50
2018-07-04T09:12:54.005Z,40.00
2018-07-04T09:15:34.600Z,38.70
2018-07-04T09:18:14.617Z,38.80
2018-07-04T09:20:54.328Z,37.10
2018-07-04T09:23:34.585Z,37.20
2018-07-04T09:26:14.371Z,39.70
2018-07-04T09:28:54.130Z,40.10
2018-07-04T09:31:34.130Z,37.30
2018-07-04T09:34:14.035Z,39.50
2018-07-04T09:36:53.977Z,38.20
2018-07-04T09:39:33.773Z,33.40
2018-07-04T09:42:13.587Z,30.80
2018-07-04T09:44:53.296Z,32.70
2018-07-04T09:47:33.035Z,31.90
2018-07-04T09:50:13.019Z,30.70
2018-07-04T09:52:52.833Z,30.80
2018-07-04T09:55:32.651Z,30.30
2018-07-04T09:58:12.303Z,31.70
2018-07-04T10:00:59.576Z,32.40
2018-07-04T10:03:39.188Z,31.90
2018-07-04T10:06:19.011Z,31.80
2018-07-04T10:08:58.707Z,31.60
2018-07-04T10:11:38.557Z,31.80
2018-07-04T10:14:18.268Z,32.00
2018-07-04T10:16:58.040Z,31.90
2018-07-04T10:19:37.978Z,31.60
2018-07-04T10:22:17.960Z,32.70
2018-07-04T10:24:57.793Z,31.30
2018-07-04T10:27:37.695Z,29.70
2018-07-04T10:30:20.017Z,31.50
2018-07-04T10:32:59.647Z,29.20
2018-07-04T10:35:39.360Z,30.70
2018-07-04T10:38:19.541Z,32.70
2018-07-04T10:43:45.133Z,29.30
2018-07-04T10:46:25.219Z,29.00
2018-07-04T10:49:06.077Z,30.20
2018-07-04T10:51:45.732Z,29.20
2018-07-04T10:54:25.631Z,28.90
2018-07-04T10:57:06.574Z,29.60
2018-07-04T10:59:46.519Z,29.00
2018-07-04T11:02:26.343Z,29.80
2018-07-04T11:05:06.155Z,29.90
2018-07-04T11:07:45.905Z,29.70
2018-07-04T11:10:25.882Z,29.60
2018-07-04T11:13:05.480Z,29.30
2018-07-04T11:15:45.243Z,31.10
2018-07-04T11:18:25.124Z,33.10
2018-07-04T11:21:04.925Z,31.10
2018-07-04T11:23:45.152Z,31.40
2018-07-04T11:26:25.243Z,31.20
2018-07-04T11:29:05.102Z,27.80
2018-07-04T11:31:44.992Z,29.40
2018-07-04T11:34:24.696Z,28.00
2018-07-04T11:37:04.411Z,27.50
2018-07-04T11:39:46.196Z,27.90
2018-07-04T11:42:25.746Z,28.00
2018-07-04T11:45:05.335Z,27.00
2018-07-04T11:47:32.710Z,27.20
2018-07-04T11:50:00.070Z,28.00
2018-07-04T11:52:27.418Z,27.50
2018-07-04T11:54:54.794Z,28.20
2018-07-04T11:57:22.134Z,27.40
2018-07-04T11:59:49.524Z,28.90
2018-07-04T12:02:16.862Z,29.90
2018-07-04T12:04:56.560Z,30.10
2018-07-04T12:07:23.909Z,29.70
2018-07-04T12:09:51.402Z,29.00
2018-07-04T12:12:18.748Z,30.30
2018-07-04T12:14:46.112Z,29.40
2018-07-04T12:17:13.900Z,28.10
2018-07-04T12:19:41.497Z,27.20
2018-07-04T12:22:08.838Z,29.30
2018-07-04T12:24:36.202Z,29.10
2018-07-04T12:27:03.614Z,28.20
2018-07-04T12:29:30.943Z,27.90
2018-07-04T12:31:58.370Z,29.10
2018-07-04T12:34:25.688Z,27.80
2018-07-04T12:36:53.055Z,27.30
2018-07-04T12:39:20.396Z,28.40
2018-07-04T12:41:47.832Z,27.50
2018-07-04T12:44:15.150Z,28.80
2018-07-04T12:46:42.529Z,30.10
2018-07-04T12:49:09.886Z,30.20
2018-07-04T12:51:37.273Z,28.50
2018-07-04T12:54:10.032Z,29.70
2018-07-04T12:56:49.434Z,29.10
2018-07-04T12:59:29.216Z,29.80
2018-07-04T13:02:08.940Z,31.10
2018-07-04T13:04:48.613Z,28.70
2018-07-04T13:07:28.321Z,28.80
2018-07-04T13:10:07.960Z,29.10
2018-07-04T13:12:48.082Z,29.80
2018-07-04T13:15:27.716Z,30.00
2018-07-04T13:18:07.498Z,31.40
2018-07-04T13:20:47.236Z,34.10
2018-07-04T13:23:26.944Z,32.40
2018-07-04T13:26:06.564Z,32.50
2018-07-04T13:28:46.126Z,33.70
2018-07-04T13:31:25.933Z,33.50
2018-07-04T13:34:05.940Z,31.00
2018-07-04T13:36:45.719Z,34.60
2018-07-04T13:42:11.855Z,31.60
2018-07-04T13:44:51.475Z,32.40
2018-07-04T13:47:31.111Z,34.60
2018-07-04T13:50:10.818Z,35.30
2018-07-04T13:52:50.562Z,34.00
2018-07-04T13:55:30.392Z,35.70
2018-07-04T13:58:10.080Z,36.40
2018-07-04T14:00:49.702Z,36.10
2018-07-04T14:03:29.227Z,36.90
2018-07-04T14:06:09.029Z,36.20
2018-07-04T14:08:48.562Z,35.70
2018-07-04T14:11:28.218Z,35.70
2018-07-04T14:14:07.823Z,35.40
2018-07-04T14:16:47.482Z,35.30
2018-07-04T14:19:27.094Z,36.20
2018-07-04T14:22:06.754Z,36.10
2018-07-04T14:24:46.595Z,33.60
2018-07-04T14:27:26.248Z,34.80
2018-07-04T14:30:05.815Z,33.70
2018-07-04T14:32:45.424Z,32.70
2018-07-04T14:35:25.144Z,34.50
2018-07-04T14:38:04.756Z,35.40
2018-07-04T14:40:45.538Z,36.30
2018-07-04T14:43:25.096Z,37.60
2018-07-04T14:46:04.669Z,35.90
2018-07-04T14:48:44.262Z,35.90
2018-07-04T14:51:23.956Z,36.40
2018-07-04T14:54:04.252Z,36.70
2018-07-04T14:56:43.958Z,37.30
2018-07-04T14:59:23.686Z,34.70
2018-07-04T15:02:03.534Z,36.10
2018-07-04T15:04:43.412Z,36.10
2018-07-04T15:07:24.556Z,37.20
2018-07-04T15:10:05.511Z,38.50
2018-07-04T15:12:45.186Z,38.70
2018-07-04T15:17:58.775Z,39.20
2018-07-04T15:20:38.631Z,39.30
2018-07-04T15:23:18.452Z,40.10
2018-07-04T15:25:58.039Z,41.40
2018-07-04T15:28:37.696Z,41.10
2018-07-04T15:31:17.510Z,43.00
2018-07-04T15:33:57.312Z,43.50
2018-07-04T15:36:37.239Z,40.90
2018-07-04T15:39:17.841Z,41.00
2018-07-04T15:41:57.580Z,42.70
2018-07-04T15:44:37.705Z,42.40
2018-07-04T15:47:17.457Z,40.40
2018-07-04T15:49:57.045Z,41.90
2018-07-04T15:52:36.702Z,39.80
2018-07-04T15:55:16.608Z,40.40
2018-07-04T15:57:56.365Z,38.90
2018-07-04T16:00:36.487Z,37.70
2018-07-04T16:03:16.138Z,40.00
2018-07-04T16:05:55.904Z,40.50
2018-07-04T16:08:35.652Z,40.50
2018-07-04T16:11:15.392Z,39.60
2018-07-04T16:13:55.146Z,40.00
2018-07-04T16:16:34.904Z,41.20
2018-07-04T16:19:14.532Z,39.90
2018-07-04T16:21:54.122Z,39.90
2018-07-04T16:24:33.996Z,41.40
2018-07-04T16:27:13.681Z,39.30
2018-07-04T16:29:53.527Z,40.70
2018-07-04T16:32:33.064Z,40.90
2018-07-04T16:35:12.790Z,41.40
2018-07-04T16:37:52.615Z,42.00
2018-07-04T16:40:32.678Z,40.70
2018-07-04T16:43:12.475Z,41.40
2018-07-04T16:45:52.535Z,42.30
2018-07-04T16:48:32.318Z,42.30
2018-07-04T16:51:12.198Z,42.30
2018-07-04T16:53:52.015Z,42.60
2018-07-04T16:56:31.929Z,43.10
2018-07-04T16:59:11.890Z,43.50
2018-07-04T17:01:51.769Z,44.20
2018-07-04T17:04:31.639Z,43.80
2018-07-04T17:07:11.311Z,43.10
2018-07-04T17:09:51.146Z,43.30
2018-07-04T17:12:30.961Z,42.20
2018-07-04T17:15:10.770Z,42.50
2018-07-04T17:17:50.507Z,43.00
2018-07-04T17:20:30.949Z,43.80
2018-07-04T17:23:10.750Z,44.10
2018-07-04T17:25:50.334Z,43.60
2018-07-04T17:28:30.109Z,44.10
2018-07-04T17:31:09.810Z,46.00
2018-07-04T17:36:23.093Z,46.10
2018-07-04T17:39:02.851Z,46.20
2018-07-04T17:41:42.502Z,45.60
2018-07-04T17:44:22.074Z,45.70
2018-07-04T17:47:01.939Z,44.70
2018-07-04T17:49:41.626Z,46.70
2018-07-04T17:52:21.829Z,47.40
2018-07-04T17:55:01.531Z,48.60
2018-07-04T17:57:41.419Z,49.00
2018-07-04T18:00:21.115Z,49.40
2018-07-04T18:03:00.744Z,49.60
2018-07-04T18:05:40.512Z,50.90
2018-07-04T18:08:20.070Z,53.10
2018-07-04T18:10:59.868Z,53.80
2018-07-04T18:13:39.730Z,53.70
2018-07-04T18:16:19.629Z,55.20
2018-07-04T18:18:59.248Z,55.60
2018-07-04T18:21:39.121Z,56.80
2018-07-04T18:24:18.758Z,56.60
2018-07-04T18:26:58.420Z,57.20
2018-07-04T18:29:38.157Z,59.00
2018-07-04T18:32:17.915Z,60.00
2018-07-04T18:34:57.604Z,57.50
2018-07-04T18:37:38.334Z,58.70
2018-07-04T18:40:18.046Z,59.00
2018-07-04T18:42:57.908Z,58.60
2018-07-04T18:45:37.788Z,58.40
2018-07-04T18:48:17.566Z,57.10
2018-07-04T18:50:57.251Z,57.60
2018-07-04T18:53:37.056Z,59.80
2018-07-04T18:56:16.732Z,59.00
2018-07-04T18:58:56.354Z,59.70
2018-07-04T19:01:36.086Z,56.80
2018-07-04T19:04:15.804Z,56.80
2018-07-04T19:06:55.535Z,59.10
2018-07-04T19:09:38.912Z,60.00
2018-07-04T19:12:18.674Z,63.40
2018-07-04T19:14:58.418Z,64.60
2018-07-04T19:17:38.252Z,63.10
2018-07-04T19:20:17.918Z,64.90
2018-07-04T19:22:57.460Z,64.00
2018-07-04T19:25:37.291Z,65.50
2018-07-04T19:28:16.969Z,66.70
2018-07-04T19:30:56.862Z,66.10
2018-07-04T19:33:36.578Z,66.60
2018-07-04T19:36:16.262Z,67.60
2018-07-04T19:38:56.156Z,69.20
2018-07-04T19:44:09.497Z,69.70
2018-07-04T19:46:49.206Z,70.20
2018-07-04T19:49:28.895Z,69.50
2018-07-04T19:52:08.554Z,69.10
2018-07-04T19:54:48.316Z,69.40
2018-07-04T19:57:28.006Z,69.10
2018-07-04T20:00:07.826Z,69.10
2018-07-04T20:02:47.624Z,71.60
2018-07-04T20:05:27.310Z,70.60
2018-07-04T20:08:06.880Z,69.20
2018-07-04T20:10:46.468Z,68.80
2018-07-04T20:13:26.762Z,71.10
2018-07-04T20:16:06.422Z,70.50
2018-07-04T20:18:46.265Z,67.00
2018-07-04T20:21:25.931Z,67.50
2018-07-04T20:24:05.708Z,67.40
2018-07-04T20:26:45.610Z,68.00
2018-07-04T20:29:25.196Z,70.30
2018-07-04T20:32:04.867Z,72.00
2018-07-04T20:34:44.572Z,70.90
2018-07-04T20:37:24.208Z,69.70
2018-07-04T20:40:03.910Z,68.60
2018-07-04T20:42:43.550Z,69.80
2018-07-04T20:45:23.336Z,67.20
2018-07-04T20:48:03.123Z,65.00
2018-07-04T20:50:42.883Z,68.60
2018-07-04T20:53:22.534Z,69.80
2018-07-04T20:56:02.198Z,68.00
2018-07-04T20:58:41.823Z,65.70
2018-07-04T21:01:21.560Z,64.40
2018-07-04T21:04:01.350Z,61.70
2018-07-04T21:06:41.044Z,60.30
2018-07-04T21:09:20.844Z,61.10
2018-07-04T21:12:00.479Z,60.70
2018-07-04T21:14:40.166Z,59.80
2018-07-04T21:17:20.016Z,60.30
2018-07-04T21:19:59.688Z,59.80
2018-07-04T21:22:39.430Z,59.60
2018-07-04T21:25:19.119Z,60.20
2018-07-04T21:27:58.755Z,60.00
2018-07-04T21:30:38.523Z,60.10
2018-07-04T21:33:18.081Z,60.20
2018-07-04T21:35:57.693Z,60.30
2018-07-04T21:38:37.343Z,60.90
2018-07-04T21:41:16.949Z,60.40
2018-07-04T21:43:56.523Z,60.20
2018-07-04T21:46:36.330Z,60.00
2018-07-04T21:49:15.903Z,61.10
2018-07-04T21:51:55.483Z,60.00
2018-07-04T21:54:35.551Z,60.40
2018-07-04T21:57:18.293Z,60.70
2018-07-04T21:59:58.111Z,61.70
2018-07-04T22:02:38.053Z,61.20
2018-07-04T22:05:17.855Z,61.20
2018-07-04T22:07:57.441Z,61.90
2018-07-04T22:10:37.364Z,61.60
2018-07-04T22:13:17.133Z,61.80
2018-07-04T22:15:56.732Z,61.90
2018-07-04T22:18:36.223Z,62.20
2018-07-04T22:21:16.013Z,62.20
2018-07-04T22:23:55.812Z,62.70
2018-07-04T22:26:35.601Z,63.30
2018-07-04T22:29:15.359Z,62.90
2018-07-04T22:34:28.918Z,63.50
2018-07-04T22:39:43.219Z,63.90
2018-07-04T22:42:22.981Z,63.30
2018-07-04T22:45:02.505Z,63.30
2018-07-04T22:47:42.111Z,63.50
2018-07-04T22:50:22.243Z,63.20
2018-07-04T22:53:02.114Z,63.00
2018-07-04T22:55:41.993Z,63.60
2018-07-04T22:58:21.655Z,62.70
2018-07-04T23:01:01.422Z,62.80
2018-07-04T23:03:41.003Z,63.10
2018-07-04T23:06:20.716Z,63.10
2018-07-04T23:09:00.390Z,63.70
2018-07-04T23:11:40.193Z,64.00
2018-07-04T23:14:19.882Z,64.00
2018-07-04T23:16:59.552Z,63.60
2018-07-04T23:19:39.124Z,64.30
2018-07-04T23:22:18.817Z,65.70
2018-07-04T23:24:58.647Z,64.90
2018-07-04T23:27:38.790Z,65.00
2018-07-04T23:30:19.035Z,65.30
2018-07-04T23:32:58.889Z,64.50
2018-07-04T23:35:38.708Z,65.50
2018-07-04T23:38:18.271Z,65.10
2018-07-04T23:40:58.043Z,66.00
2018-07-04T23:43:39.519Z,67.60
2018-07-04T23:46:19.276Z,67.90
2018-07-04T23:48:59.031Z,68.10
2018-07-04T23:51:38.809Z,68.70
2018-07-04T23:54:18.544Z,68.60
2018-07-04T23:56:58.192Z,68.00
2018-07-04T23:59:37.890Z,69.30
